sensor_id;sensor_type;location;lat;lon;timestamp;P1;durP1;ratioP1;P2;durP2;ratioP2
22737;SDS011;11536;50.860;4.286;2023-04-25T00:02:09;14.50;;;3.50;;
22737;SDS011;11536;50.860;4.286;2023-04-25T00:04:35;10.50;;;2.25;;
22737;SDS011;11536;50.860;4.286;2023-04-25T00:07:02;8.00;;;1.80;;
22737;SDS011;11536;50.860;4.286;2023-04-25T00:09:28;7.03;;;1.88;;
22737;SDS011;11536;50.860;4.286;2023-04-25T00:11:54;14.20;;;2.85;;
22737;SDS011;11536;50.860;4.286;2023-04-25T00:14:20;7.90;;;2.13;;
22737;SDS011;11536;50.860;4.286;2023-04-25T00:16:46;14.20;;;2.65;;
22737;SDS011;11536;50.860;4.286;2023-04-25T00:19:13;9.23;;;2.33;;
22737;SDS011;11536;50.860;4.286;2023-04-25T00:21:38;11.85;;;2.28;;
22737;SDS011;11536;50.860;4.286;2023-04-25T00:24:06;9.60;;;2.00;;
22737;SDS011;11536;50.860;4.286;2023-04-25T00:26:33;11.18;;;2.80;;
22737;SDS011;11536;50.860;4.286;2023-04-25T00:28:59;8.52;;;1.88;;
22737;SDS011;11536;50.860;4.286;2023-04-25T00:31:25;11.93;;;2.55;;
22737;SDS011;11536;50.860;4.286;2023-04-25T00:33:51;11.15;;;2.25;;
22737;SDS011;11536;50.860;4.286;2023-04-25T00:36:17;10.05;;;2.10;;
22737;SDS011;11536;50.860;4.286;2023-04-25T00:38:43;7.88;;;1.85;;
22737;SDS011;11536;50.860;4.286;2023-04-25T00:41:09;8.57;;;2.15;;
22737;SDS011;11536;50.860;4.286;2023-04-25T00:43:36;15.57;;;2.78;;
22737;SDS011;11536;50.860;4.286;2023-04-25T00:46:02;9.07;;;2.50;;
22737;SDS011;11536;50.860;4.286;2023-04-25T00:48:27;7.03;;;2.40;;
22737;SDS011;11536;50.860;4.286;2023-04-25T00:50:54;9.05;;;2.22;;
22737;SDS011;11536;50.860;4.286;2023-04-25T00:53:22;7.07;;;2.20;;
22737;SDS011;11536;50.860;4.286;2023-04-25T00:55:49;6.00;;;1.70;;
22737;SDS011;11536;50.860;4.286;2023-04-25T00:58:18;11.52;;;2.70;;
22737;SDS011;11536;50.860;4.286;2023-04-25T01:00:45;11.63;;;2.10;;
22737;SDS011;11536;50.860;4.286;2023-04-25T01:03:16;10.98;;;2.60;;
22737;SDS011;11536;50.860;4.286;2023-04-25T01:05:44;8.30;;;2.42;;
22737;SDS011;11536;50.860;4.286;2023-04-25T01:08:10;10.00;;;2.25;;
22737;SDS011;11536;50.860;4.286;2023-04-25T01:10:37;14.52;;;2.47;;
22737;SDS011;11536;50.860;4.286;2023-04-25T01:13:03;9.75;;;1.80;;
22737;SDS011;11536;50.860;4.286;2023-04-25T01:15:29;10.77;;;2.65;;
22737;SDS011;11536;50.860;4.286;2023-04-25T01:17:55;13.48;;;2.70;;
22737;SDS011;11536;50.860;4.286;2023-04-25T01:20:23;13.52;;;2.58;;
22737;SDS011;11536;50.860;4.286;2023-04-25T01:22:50;8.82;;;2.30;;
22737;SDS011;11536;50.860;4.286;2023-04-25T01:25:16;6.18;;;1.92;;
22737;SDS011;11536;50.860;4.286;2023-04-25T01:27:42;10.77;;;2.22;;
22737;SDS011;11536;50.860;4.286;2023-04-25T01:30:08;9.02;;;2.53;;
22737;SDS011;11536;50.860;4.286;2023-04-25T01:32:34;8.55;;;2.28;;
22737;SDS011;11536;50.860;4.286;2023-04-25T01:35:06;8.98;;;2.30;;
22737;SDS011;11536;50.860;4.286;2023-04-25T01:37:41;12.20;;;2.38;;
22737;SDS011;11536;50.860;4.286;2023-04-25T01:40:10;8.07;;;2.53;;
22737;SDS011;11536;50.860;4.286;2023-04-25T01:42:38;8.63;;;2.58;;
22737;SDS011;11536;50.860;4.286;2023-04-25T01:45:06;10.23;;;2.42;;
22737;SDS011;11536;50.860;4.286;2023-04-25T01:47:33;12.00;;;2.85;;
22737;SDS011;11536;50.860;4.286;2023-04-25T01:50:05;7.60;;;1.90;;
22737;SDS011;11536;50.860;4.286;2023-04-25T01:52:31;8.40;;;2.53;;
22737;SDS011;11536;50.860;4.286;2023-04-25T01:54:57;8.88;;;2.42;;
22737;SDS011;11536;50.860;4.286;2023-04-25T01:57:25;13.13;;;2.28;;
22737;SDS011;11536;50.860;4.286;2023-04-25T01:59:50;7.70;;;2.30;;
22737;SDS011;11536;50.860;4.286;2023-04-25T02:02:16;13.98;;;2.53;;
22737;SDS011;11536;50.860;4.286;2023-04-25T02:04:42;14.13;;;2.72;;
22737;SDS011;11536;50.860;4.286;2023-04-25T02:07:07;10.07;;;2.63;;
22737;SDS011;11536;50.860;4.286;2023-04-25T02:09:33;11.45;;;2.40;;
22737;SDS011;11536;50.860;4.286;2023-04-25T02:11:59;11.30;;;2.28;;
22737;SDS011;11536;50.860;4.286;2023-04-25T02:14:25;11.80;;;2.58;;
22737;SDS011;11536;50.860;4.286;2023-04-25T02:16:50;12.70;;;2.80;;
22737;SDS011;11536;50.860;4.286;2023-04-25T02:19:16;10.48;;;1.88;;
22737;SDS011;11536;50.860;4.286;2023-04-25T02:21:42;8.23;;;2.17;;
22737;SDS011;11536;50.860;4.286;2023-04-25T02:24:08;12.85;;;2.92;;
22737;SDS011;11536;50.860;4.286;2023-04-25T02:26:33;10.85;;;2.40;;
22737;SDS011;11536;50.860;4.286;2023-04-25T02:28:59;12.60;;;2.55;;
22737;SDS011;11536;50.860;4.286;2023-04-25T02:31:26;14.23;;;2.78;;
22737;SDS011;11536;50.860;4.286;2023-04-25T02:33:51;10.98;;;2.33;;
22737;SDS011;11536;50.860;4.286;2023-04-25T02:36:17;9.38;;;2.15;;
22737;SDS011;11536;50.860;4.286;2023-04-25T02:38:42;10.43;;;2.40;;
22737;SDS011;11536;50.860;4.286;2023-04-25T02:41:08;9.02;;;2.20;;
22737;SDS011;11536;50.860;4.286;2023-04-25T02:43:34;12.40;;;2.95;;
22737;SDS011;11536;50.860;4.286;2023-04-25T02:45:59;11.95;;;2.65;;
22737;SDS011;11536;50.860;4.286;2023-04-25T02:48:25;11.25;;;2.22;;
22737;SDS011;11536;50.860;4.286;2023-04-25T02:50:51;13.55;;;2.30;;
22737;SDS011;11536;50.860;4.286;2023-04-25T02:53:16;13.15;;;2.50;;
22737;SDS011;11536;50.860;4.286;2023-04-25T02:55:42;8.90;;;2.78;;
22737;SDS011;11536;50.860;4.286;2023-04-25T02:58:07;10.82;;;2.72;;
22737;SDS011;11536;50.860;4.286;2023-04-25T03:00:33;12.82;;;2.75;;
22737;SDS011;11536;50.860;4.286;2023-04-25T03:02:59;10.13;;;2.05;;
22737;SDS011;11536;50.860;4.286;2023-04-25T03:05:25;9.88;;;2.40;;
22737;SDS011;11536;50.860;4.286;2023-04-25T03:07:50;11.18;;;2.95;;
22737;SDS011;11536;50.860;4.286;2023-04-25T03:10:16;10.07;;;2.63;;
22737;SDS011;11536;50.860;4.286;2023-04-25T03:12:41;13.77;;;2.35;;
22737;SDS011;11536;50.860;4.286;2023-04-25T03:15:07;9.90;;;2.95;;
22737;SDS011;11536;50.860;4.286;2023-04-25T03:17:33;15.52;;;2.20;;
22737;SDS011;11536;50.860;4.286;2023-04-25T03:19:59;10.80;;;2.83;;
22737;SDS011;11536;50.860;4.286;2023-04-25T03:22:24;14.27;;;2.47;;
22737;SDS011;11536;50.860;4.286;2023-04-25T03:24:50;13.55;;;2.28;;
22737;SDS011;11536;50.860;4.286;2023-04-25T03:27:16;12.00;;;2.47;;
22737;SDS011;11536;50.860;4.286;2023-04-25T03:29:42;10.88;;;2.25;;
22737;SDS011;11536;50.860;4.286;2023-04-25T03:32:08;11.68;;;2.40;;
22737;SDS011;11536;50.860;4.286;2023-04-25T03:34:34;11.82;;;2.83;;
22737;SDS011;11536;50.860;4.286;2023-04-25T03:37:00;8.93;;;2.08;;
22737;SDS011;11536;50.860;4.286;2023-04-25T03:39:26;10.20;;;2.30;;
22737;SDS011;11536;50.860;4.286;2023-04-25T03:41:51;11.93;;;2.38;;
22737;SDS011;11536;50.860;4.286;2023-04-25T03:44:17;11.50;;;2.28;;
22737;SDS011;11536;50.860;4.286;2023-04-25T03:46:42;11.50;;;2.03;;
22737;SDS011;11536;50.860;4.286;2023-04-25T03:49:08;9.10;;;2.10;;
22737;SDS011;11536;50.860;4.286;2023-04-25T03:51:34;10.10;;;2.20;;
22737;SDS011;11536;50.860;4.286;2023-04-25T03:53:59;15.88;;;2.30;;
22737;SDS011;11536;50.860;4.286;2023-04-25T03:56:25;10.65;;;2.40;;
22737;SDS011;11536;50.860;4.286;2023-04-25T03:58:51;12.38;;;2.63;;
22737;SDS011;11536;50.860;4.286;2023-04-25T04:01:16;8.98;;;2.30;;
22737;SDS011;11536;50.860;4.286;2023-04-25T04:03:42;9.70;;;2.97;;
22737;SDS011;11536;50.860;4.286;2023-04-25T04:06:08;11.68;;;2.13;;
22737;SDS011;11536;50.860;4.286;2023-04-25T04:08:34;8.07;;;1.60;;
22737;SDS011;11536;50.860;4.286;2023-04-25T04:11:00;10.32;;;2.10;;
22737;SDS011;11536;50.860;4.286;2023-04-25T04:13:26;8.07;;;1.83;;
22737;SDS011;11536;50.860;4.286;2023-04-25T04:15:52;10.38;;;2.50;;
22737;SDS011;11536;50.860;4.286;2023-04-25T04:18:18;12.48;;;1.80;;
22737;SDS011;11536;50.860;4.286;2023-04-25T04:20:44;7.65;;;2.35;;
22737;SDS011;11536;50.860;4.286;2023-04-25T04:23:09;6.28;;;2.20;;
22737;SDS011;11536;50.860;4.286;2023-04-25T04:25:35;9.18;;;2.60;;
22737;SDS011;11536;50.860;4.286;2023-04-25T04:28:02;9.38;;;2.47;;
22737;SDS011;11536;50.860;4.286;2023-04-25T04:30:27;8.38;;;1.85;;
22737;SDS011;11536;50.860;4.286;2023-04-25T04:32:56;8.43;;;2.03;;
22737;SDS011;11536;50.860;4.286;2023-04-25T04:35:22;7.63;;;1.83;;
22737;SDS011;11536;50.860;4.286;2023-04-25T04:37:48;9.93;;;2.17;;
22737;SDS011;11536;50.860;4.286;2023-04-25T04:40:14;12.38;;;2.45;;
22737;SDS011;11536;50.860;4.286;2023-04-25T04:42:44;9.77;;;2.30;;
22737;SDS011;11536;50.860;4.286;2023-04-25T04:45:13;9.32;;;2.33;;
22737;SDS011;11536;50.860;4.286;2023-04-25T04:47:39;10.27;;;2.53;;
22737;SDS011;11536;50.860;4.286;2023-04-25T04:50:09;9.63;;;2.67;;
22737;SDS011;11536;50.860;4.286;2023-04-25T04:52:35;9.05;;;2.25;;
22737;SDS011;11536;50.860;4.286;2023-04-25T04:55:03;6.13;;;1.88;;
22737;SDS011;11536;50.860;4.286;2023-04-25T04:57:30;10.35;;;2.53;;
22737;SDS011;11536;50.860;4.286;2023-04-25T04:59:58;9.75;;;2.05;;
22737;SDS011;11536;50.860;4.286;2023-04-25T05:02:24;8.38;;;2.25;;
22737;SDS011;11536;50.860;4.286;2023-04-25T05:04:50;12.50;;;2.08;;
22737;SDS011;11536;50.860;4.286;2023-04-25T05:07:16;9.30;;;2.40;;
22737;SDS011;11536;50.860;4.286;2023-04-25T05:09:42;8.25;;;1.90;;
22737;SDS011;11536;50.860;4.286;2023-04-25T05:12:08;7.80;;;2.28;;
22737;SDS011;11536;50.860;4.286;2023-04-25T05:14:34;10.52;;;1.88;;
22737;SDS011;11536;50.860;4.286;2023-04-25T05:17:00;10.23;;;2.03;;
22737;SDS011;11536;50.860;4.286;2023-04-25T05:19:26;9.90;;;1.83;;
22737;SDS011;11536;50.860;4.286;2023-04-25T05:21:51;8.13;;;1.95;;
22737;SDS011;11536;50.860;4.286;2023-04-25T05:24:17;5.40;;;1.90;;
22737;SDS011;11536;50.860;4.286;2023-04-25T05:26:43;6.03;;;1.85;;
22737;SDS011;11536;50.860;4.286;2023-04-25T05:29:08;7.18;;;1.60;;
22737;SDS011;11536;50.860;4.286;2023-04-25T05:31:35;10.02;;;1.50;;
22737;SDS011;11536;50.860;4.286;2023-04-25T05:34:01;6.70;;;1.70;;
22737;SDS011;11536;50.860;4.286;2023-04-25T05:36:27;5.55;;;1.55;;
22737;SDS011;11536;50.860;4.286;2023-04-25T05:38:53;6.10;;;1.60;;
22737;SDS011;11536;50.860;4.286;2023-04-25T05:41:19;9.75;;;2.10;;
22737;SDS011;11536;50.860;4.286;2023-04-25T05:43:45;9.32;;;1.92;;
22737;SDS011;11536;50.860;4.286;2023-04-25T05:46:14;8.43;;;2.13;;
22737;SDS011;11536;50.860;4.286;2023-04-25T05:48:42;6.22;;;1.67;;
22737;SDS011;11536;50.860;4.286;2023-04-25T05:51:08;10.82;;;2.03;;
22737;SDS011;11536;50.860;4.286;2023-04-25T05:53:33;5.70;;;1.70;;
22737;SDS011;11536;50.860;4.286;2023-04-25T05:56:00;7.13;;;1.70;;
22737;SDS011;11536;50.860;4.286;2023-04-25T05:58:26;6.95;;;1.70;;
22737;SDS011;11536;50.860;4.286;2023-04-25T06:00:51;9.95;;;1.55;;
22737;SDS011;11536;50.860;4.286;2023-04-25T06:03:17;6.25;;;1.83;;
22737;SDS011;11536;50.860;4.286;2023-04-25T06:05:43;12.23;;;2.13;;
22737;SDS011;11536;50.860;4.286;2023-04-25T06:08:09;7.63;;;2.00;;
22737;SDS011;11536;50.860;4.286;2023-04-25T06:10:38;10.75;;;1.90;;
22737;SDS011;11536;50.860;4.286;2023-04-25T06:13:04;9.20;;;1.80;;
22737;SDS011;11536;50.860;4.286;2023-04-25T06:15:30;10.73;;;2.25;;
22737;SDS011;11536;50.860;4.286;2023-04-25T06:17:57;8.43;;;1.80;;
22737;SDS011;11536;50.860;4.286;2023-04-25T06:20:23;6.97;;;1.70;;
22737;SDS011;11536;50.860;4.286;2023-04-25T06:22:49;9.30;;;1.85;;
22737;SDS011;11536;50.860;4.286;2023-04-25T06:25:16;7.72;;;2.08;;
22737;SDS011;11536;50.860;4.286;2023-04-25T06:27:42;7.75;;;2.08;;
22737;SDS011;11536;50.860;4.286;2023-04-25T06:30:08;6.45;;;1.90;;
22737;SDS011;11536;50.860;4.286;2023-04-25T06:32:34;9.65;;;2.03;;
22737;SDS011;11536;50.860;4.286;2023-04-25T06:35:00;10.95;;;2.33;;
22737;SDS011;11536;50.860;4.286;2023-04-25T06:37:26;7.93;;;1.95;;
22737;SDS011;11536;50.860;4.286;2023-04-25T06:39:52;13.48;;;2.40;;
22737;SDS011;11536;50.860;4.286;2023-04-25T06:42:17;7.80;;;2.20;;
22737;SDS011;11536;50.860;4.286;2023-04-25T06:44:43;11.32;;;2.70;;
22737;SDS011;11536;50.860;4.286;2023-04-25T06:47:09;10.52;;;2.50;;
22737;SDS011;11536;50.860;4.286;2023-04-25T06:49:34;7.90;;;2.38;;
22737;SDS011;11536;50.860;4.286;2023-04-25T06:52:00;9.73;;;2.65;;
22737;SDS011;11536;50.860;4.286;2023-04-25T06:54:25;10.23;;;2.22;;
22737;SDS011;11536;50.860;4.286;2023-04-25T06:56:54;10.45;;;1.98;;
22737;SDS011;11536;50.860;4.286;2023-04-25T06:59:20;8.18;;;1.90;;
22737;SDS011;11536;50.860;4.286;2023-04-25T07:01:46;13.40;;;2.10;;
22737;SDS011;11536;50.860;4.286;2023-04-25T07:04:11;8.13;;;1.95;;
22737;SDS011;11536;50.860;4.286;2023-04-25T07:06:37;10.25;;;1.92;;
22737;SDS011;11536;50.860;4.286;2023-04-25T07:09:07;12.40;;;2.03;;
22737;SDS011;11536;50.860;4.286;2023-04-25T07:11:34;7.25;;;1.35;;
22737;SDS011;11536;50.860;4.286;2023-04-25T07:14:01;7.88;;;1.98;;
22737;SDS011;11536;50.860;4.286;2023-04-25T07:16:26;11.38;;;2.35;;
22737;SDS011;11536;50.860;4.286;2023-04-25T07:18:52;9.00;;;2.03;;
22737;SDS011;11536;50.860;4.286;2023-04-25T07:21:18;10.50;;;1.77;;
22737;SDS011;11536;50.860;4.286;2023-04-25T07:23:44;6.18;;;1.38;;
22737;SDS011;11536;50.860;4.286;2023-04-25T07:26:10;5.85;;;1.35;;
22737;SDS011;11536;50.860;4.286;2023-04-25T07:28:35;8.52;;;1.63;;
22737;SDS011;11536;50.860;4.286;2023-04-25T07:31:01;7.32;;;1.60;;
22737;SDS011;11536;50.860;4.286;2023-04-25T07:33:27;9.38;;;1.73;;
22737;SDS011;11536;50.860;4.286;2023-04-25T07:35:53;7.53;;;1.55;;
22737;SDS011;11536;50.860;4.286;2023-04-25T07:38:19;9.55;;;1.65;;
22737;SDS011;11536;50.860;4.286;2023-04-25T07:40:45;12.20;;;1.70;;
22737;SDS011;11536;50.860;4.286;2023-04-25T07:43:11;10.10;;;1.40;;
22737;SDS011;11536;50.860;4.286;2023-04-25T07:45:39;4.60;;;1.20;;
22737;SDS011;11536;50.860;4.286;2023-04-25T07:48:05;4.32;;;1.15;;
22737;SDS011;11536;50.860;4.286;2023-04-25T07:50:31;6.53;;;1.55;;
22737;SDS011;11536;50.860;4.286;2023-04-25T07:52:56;11.18;;;1.83;;
22737;SDS011;11536;50.860;4.286;2023-04-25T07:55:22;7.32;;;1.70;;
22737;SDS011;11536;50.860;4.286;2023-04-25T07:57:48;8.00;;;1.20;;
22737;SDS011;11536;50.860;4.286;2023-04-25T08:00:13;4.57;;;1.35;;
22737;SDS011;11536;50.860;4.286;2023-04-25T08:02:40;10.63;;;1.85;;
22737;SDS011;11536;50.860;4.286;2023-04-25T08:05:05;8.13;;;1.70;;
22737;SDS011;11536;50.860;4.286;2023-04-25T08:07:33;8.18;;;1.55;;
22737;SDS011;11536;50.860;4.286;2023-04-25T08:09:59;8.48;;;1.45;;
22737;SDS011;11536;50.860;4.286;2023-04-25T08:12:25;13.40;;;1.60;;
22737;SDS011;11536;50.860;4.286;2023-04-25T08:14:51;8.70;;;1.52;;
22737;SDS011;11536;50.860;4.286;2023-04-25T08:17:16;7.70;;;1.70;;
22737;SDS011;11536;50.860;4.286;2023-04-25T08:19:42;7.07;;;1.40;;
22737;SDS011;11536;50.860;4.286;2023-04-25T08:22:08;5.38;;;1.63;;
22737;SDS011;11536;50.860;4.286;2023-04-25T08:24:33;7.00;;;1.25;;
22737;SDS011;11536;50.860;4.286;2023-04-25T08:26:59;5.18;;;1.40;;
22737;SDS011;11536;50.860;4.286;2023-04-25T08:29:25;9.00;;;1.40;;
22737;SDS011;11536;50.860;4.286;2023-04-25T08:31:51;7.78;;;1.80;;
22737;SDS011;11536;50.860;4.286;2023-04-25T08:34:18;8.48;;;1.73;;
22737;SDS011;11536;50.860;4.286;2023-04-25T08:36:45;11.82;;;1.33;;
22737;SDS011;11536;50.860;4.286;2023-04-25T08:39:10;5.72;;;1.27;;
22737;SDS011;11536;50.860;4.286;2023-04-25T08:41:36;6.85;;;1.35;;
22737;SDS011;11536;50.860;4.286;2023-04-25T08:44:03;7.95;;;1.58;;
22737;SDS011;11536;50.860;4.286;2023-04-25T08:46:29;7.20;;;1.63;;
22737;SDS011;11536;50.860;4.286;2023-04-25T08:48:58;5.63;;;1.10;;
22737;SDS011;11536;50.860;4.286;2023-04-25T08:51:26;5.57;;;1.20;;
22737;SDS011;11536;50.860;4.286;2023-04-25T08:53:55;6.35;;;1.00;;
22737;SDS011;11536;50.860;4.286;2023-04-25T08:56:24;4.82;;;1.40;;
22737;SDS011;11536;50.860;4.286;2023-04-25T08:58:50;5.45;;;1.10;;
22737;SDS011;11536;50.860;4.286;2023-04-25T09:01:17;6.00;;;1.13;;
22737;SDS011;11536;50.860;4.286;2023-04-25T09:03:43;7.93;;;1.10;;
22737;SDS011;11536;50.860;4.286;2023-04-25T09:06:13;5.07;;;1.00;;
22737;SDS011;11536;50.860;4.286;2023-04-25T09:08:39;5.50;;;1.35;;
22737;SDS011;11536;50.860;4.286;2023-04-25T09:11:06;5.45;;;1.10;;
22737;SDS011;11536;50.860;4.286;2023-04-25T09:13:32;2.10;;;0.77;;
22737;SDS011;11536;50.860;4.286;2023-04-25T09:15:59;7.80;;;1.10;;
22737;SDS011;11536;50.860;4.286;2023-04-25T09:18:25;3.58;;;0.93;;
22737;SDS011;11536;50.860;4.286;2023-04-25T09:20:53;5.95;;;1.00;;
22737;SDS011;11536;50.860;4.286;2023-04-25T09:23:20;4.85;;;0.88;;
22737;SDS011;11536;50.860;4.286;2023-04-25T09:25:55;8.63;;;1.25;;
22737;SDS011;11536;50.860;4.286;2023-04-25T09:28:24;5.82;;;0.93;;
22737;SDS011;11536;50.860;4.286;2023-04-25T09:30:58;5.55;;;1.75;;
22737;SDS011;11536;50.860;4.286;2023-04-25T09:33:28;4.13;;;1.13;;
22737;SDS011;11536;50.860;4.286;2023-04-25T09:35:56;5.47;;;1.08;;
22737;SDS011;11536;50.860;4.286;2023-04-25T09:38:43;7.32;;;1.50;;
22737;SDS011;11536;50.860;4.286;2023-04-25T09:41:10;7.50;;;1.00;;
22737;SDS011;11536;50.860;4.286;2023-04-25T09:43:36;6.50;;;1.23;;
22737;SDS011;11536;50.860;4.286;2023-04-25T09:46:02;4.90;;;0.88;;
22737;SDS011;11536;50.860;4.286;2023-04-25T09:48:33;7.35;;;1.52;;
22737;SDS011;11536;50.860;4.286;2023-04-25T09:53:38;7.43;;;0.88;;
22737;SDS011;11536;50.860;4.286;2023-04-25T09:56:06;4.57;;;0.90;;
22737;SDS011;11536;50.860;4.286;2023-04-25T09:58:33;6.15;;;0.80;;
22737;SDS011;11536;50.860;4.286;2023-04-25T10:01:01;4.30;;;0.70;;
22737;SDS011;11536;50.860;4.286;2023-04-25T10:03:32;4.60;;;0.98;;
22737;SDS011;11536;50.860;4.286;2023-04-25T10:06:08;2.63;;;0.82;;
22737;SDS011;11536;50.860;4.286;2023-04-25T10:08:37;4.03;;;0.70;;
22737;SDS011;11536;50.860;4.286;2023-04-25T10:11:04;2.88;;;0.73;;
22737;SDS011;11536;50.860;4.286;2023-04-25T10:13:32;2.65;;;0.60;;
22737;SDS011;11536;50.860;4.286;2023-04-25T10:15:59;4.15;;;0.80;;
22737;SDS011;11536;50.860;4.286;2023-04-25T10:18:30;4.13;;;0.77;;
22737;SDS011;11536;50.860;4.286;2023-04-25T10:20:57;3.85;;;1.00;;
22737;SDS011;11536;50.860;4.286;2023-04-25T10:23:25;4.38;;;0.80;;
22737;SDS011;11536;50.860;4.286;2023-04-25T10:25:51;3.72;;;0.70;;
22737;SDS011;11536;50.860;4.286;2023-04-25T10:28:18;2.67;;;0.80;;
22737;SDS011;11536;50.860;4.286;2023-04-25T10:31:18;3.28;;;0.80;;
22737;SDS011;11536;50.860;4.286;2023-04-25T10:33:40;6.07;;;0.75;;
22737;SDS011;11536;50.860;4.286;2023-04-25T10:36:11;5.53;;;0.90;;
22737;SDS011;11536;50.860;4.286;2023-04-25T10:38:37;5.47;;;0.98;;
22737;SDS011;11536;50.860;4.286;2023-04-25T10:41:04;4.97;;;0.70;;
22737;SDS011;11536;50.860;4.286;2023-04-25T10:43:40;6.50;;;1.35;;
22737;SDS011;11536;50.860;4.286;2023-04-25T10:46:14;4.45;;;1.10;;
22737;SDS011;11536;50.860;4.286;2023-04-25T10:48:50;4.80;;;0.93;;
22737;SDS011;11536;50.860;4.286;2023-04-25T10:51:24;7.00;;;1.05;;
22737;SDS011;11536;50.860;4.286;2023-04-25T10:54:05;4.22;;;1.05;;
22737;SDS011;11536;50.860;4.286;2023-04-25T10:59:08;8.20;;;1.23;;
22737;SDS011;11536;50.860;4.286;2023-04-25T11:01:40;4.30;;;0.85;;
22737;SDS011;11536;50.860;4.286;2023-04-25T11:04:28;6.55;;;1.20;;
22737;SDS011;11536;50.860;4.286;2023-04-25T11:09:36;5.82;;;1.00;;
22737;SDS011;11536;50.860;4.286;2023-04-25T11:12:04;4.10;;;0.95;;
22737;SDS011;11536;50.860;4.286;2023-04-25T11:14:30;5.45;;;0.70;;
22737;SDS011;11536;50.860;4.286;2023-04-25T11:16:58;6.57;;;0.95;;
22737;SDS011;11536;50.860;4.286;2023-04-25T11:19:26;6.60;;;1.00;;
22737;SDS011;11536;50.860;4.286;2023-04-25T11:21:56;3.85;;;0.70;;
22737;SDS011;11536;50.860;4.286;2023-04-25T11:24:29;3.35;;;0.68;;
22737;SDS011;11536;50.860;4.286;2023-04-25T11:27:00;3.53;;;0.80;;
22737;SDS011;11536;50.860;4.286;2023-04-25T11:29:27;3.88;;;0.80;;
22737;SDS011;11536;50.860;4.286;2023-04-25T11:31:54;4.28;;;0.85;;
22737;SDS011;11536;50.860;4.286;2023-04-25T11:34:26;5.20;;;0.90;;
22737;SDS011;11536;50.860;4.286;2023-04-25T11:36:55;4.97;;;0.85;;
22737;SDS011;11536;50.860;4.286;2023-04-25T11:39:21;2.08;;;0.60;;
22737;SDS011;11536;50.860;4.286;2023-04-25T11:41:48;4.07;;;0.80;;
22737;SDS011;11536;50.860;4.286;2023-04-25T11:44:15;6.38;;;0.98;;
22737;SDS011;11536;50.860;4.286;2023-04-25T11:46:45;3.28;;;0.60;;
22737;SDS011;11536;50.860;4.286;2023-04-25T11:49:11;3.58;;;0.68;;
22737;SDS011;11536;50.860;4.286;2023-04-25T11:51:38;2.55;;;0.50;;
22737;SDS011;11536;50.860;4.286;2023-04-25T11:54:07;3.65;;;0.90;;
22737;SDS011;11536;50.860;4.286;2023-04-25T11:56:32;4.97;;;0.80;;
22737;SDS011;11536;50.860;4.286;2023-04-25T11:59:02;2.22;;;0.82;;
22737;SDS011;11536;50.860;4.286;2023-04-25T12:04:12;5.00;;;0.77;;
22737;SDS011;11536;50.860;4.286;2023-04-25T12:06:40;1.98;;;0.70;;
22737;SDS011;11536;50.860;4.286;2023-04-25T12:09:08;5.28;;;0.90;;
22737;SDS011;11536;50.860;4.286;2023-04-25T12:11:42;8.82;;;1.27;;
22737;SDS011;11536;50.860;4.286;2023-04-25T12:14:34;3.35;;;0.80;;
22737;SDS011;11536;50.860;4.286;2023-04-25T12:17:01;3.65;;;0.75;;
22737;SDS011;11536;50.860;4.286;2023-04-25T12:19:33;4.80;;;0.80;;
22737;SDS011;11536;50.860;4.286;2023-04-25T12:22:00;3.63;;;0.70;;
22737;SDS011;11536;50.860;4.286;2023-04-25T12:24:27;7.72;;;0.60;;
22737;SDS011;11536;50.860;4.286;2023-04-25T12:27:00;2.78;;;0.55;;
22737;SDS011;11536;50.860;4.286;2023-04-25T12:29:28;4.18;;;0.47;;
22737;SDS011;11536;50.860;4.286;2023-04-25T12:31:55;4.72;;;0.60;;
22737;SDS011;11536;50.860;4.286;2023-04-25T12:34:22;3.58;;;0.73;;
22737;SDS011;11536;50.860;4.286;2023-04-25T12:36:48;3.30;;;0.77;;
22737;SDS011;11536;50.860;4.286;2023-04-25T12:39:18;2.95;;;0.63;;
22737;SDS011;11536;50.860;4.286;2023-04-25T12:41:46;3.28;;;0.85;;
22737;SDS011;11536;50.860;4.286;2023-04-25T12:44:17;7.22;;;0.80;;
22737;SDS011;11536;50.860;4.286;2023-04-25T12:46:42;3.80;;;0.80;;
22737;SDS011;11536;50.860;4.286;2023-04-25T12:49:08;5.38;;;0.90;;
22737;SDS011;11536;50.860;4.286;2023-04-25T12:51:34;6.50;;;0.80;;
22737;SDS011;11536;50.860;4.286;2023-04-25T12:54:00;1.95;;;0.60;;
22737;SDS011;11536;50.860;4.286;2023-04-25T12:56:27;2.15;;;0.57;;
22737;SDS011;11536;50.860;4.286;2023-04-25T12:58:53;2.70;;;0.45;;
22737;SDS011;11536;50.860;4.286;2023-04-25T13:01:20;2.60;;;0.30;;
22737;SDS011;11536;50.860;4.286;2023-04-25T13:03:46;5.18;;;0.70;;
22737;SDS011;11536;50.860;4.286;2023-04-25T13:06:13;3.50;;;0.80;;
22737;SDS011;11536;50.860;4.286;2023-04-25T13:08:39;8.60;;;0.80;;
22737;SDS011;11536;50.860;4.286;2023-04-25T13:11:06;4.45;;;0.88;;
22737;SDS011;11536;50.860;4.286;2023-04-25T13:13:32;5.50;;;0.80;;
22737;SDS011;11536;50.860;4.286;2023-04-25T13:15:59;5.57;;;0.60;;
22737;SDS011;11536;50.860;4.286;2023-04-25T13:18:32;4.22;;;0.70;;
22737;SDS011;11536;50.860;4.286;2023-04-25T13:20:58;3.08;;;0.88;;
22737;SDS011;11536;50.860;4.286;2023-04-25T13:23:27;1.88;;;0.40;;
22737;SDS011;11536;50.860;4.286;2023-04-25T13:25:54;4.55;;;0.70;;
22737;SDS011;11536;50.860;4.286;2023-04-25T13:28:22;4.32;;;0.50;;
22737;SDS011;11536;50.860;4.286;2023-04-25T13:30:49;1.65;;;0.30;;
22737;SDS011;11536;50.860;4.286;2023-04-25T13:33:15;2.97;;;0.70;;
22737;SDS011;11536;50.860;4.286;2023-04-25T13:35:41;2.58;;;0.40;;
22737;SDS011;11536;50.860;4.286;2023-04-25T13:38:07;2.97;;;0.60;;
22737;SDS011;11536;50.860;4.286;2023-04-25T13:40:34;2.88;;;0.85;;
22737;SDS011;11536;50.860;4.286;2023-04-25T13:43:01;3.70;;;0.50;;
22737;SDS011;11536;50.860;4.286;2023-04-25T13:45:27;3.15;;;0.60;;
22737;SDS011;11536;50.860;4.286;2023-04-25T13:47:52;6.07;;;0.60;;
22737;SDS011;11536;50.860;4.286;2023-04-25T13:50:18;2.90;;;0.60;;
22737;SDS011;11536;50.860;4.286;2023-04-25T13:52:44;5.20;;;0.60;;
22737;SDS011;11536;50.860;4.286;2023-04-25T13:55:10;5.50;;;0.63;;
22737;SDS011;11536;50.860;4.286;2023-04-25T13:57:35;5.25;;;0.70;;
22737;SDS011;11536;50.860;4.286;2023-04-25T14:00:02;3.60;;;0.85;;
22737;SDS011;11536;50.860;4.286;2023-04-25T14:02:33;5.32;;;0.60;;
22737;SDS011;11536;50.860;4.286;2023-04-25T14:05:05;2.55;;;0.40;;
22737;SDS011;11536;50.860;4.286;2023-04-25T14:07:36;4.30;;;0.70;;
22737;SDS011;11536;50.860;4.286;2023-04-25T14:10:02;3.85;;;0.70;;
22737;SDS011;11536;50.860;4.286;2023-04-25T14:12:29;4.03;;;0.80;;
22737;SDS011;11536;50.860;4.286;2023-04-25T14:14:55;3.40;;;0.80;;
22737;SDS011;11536;50.860;4.286;2023-04-25T14:17:20;2.83;;;0.65;;
22737;SDS011;11536;50.860;4.286;2023-04-25T14:19:46;4.07;;;0.80;;
22737;SDS011;11536;50.860;4.286;2023-04-25T14:22:13;3.80;;;0.60;;
22737;SDS011;11536;50.860;4.286;2023-04-25T14:24:40;2.90;;;0.52;;
22737;SDS011;11536;50.860;4.286;2023-04-25T14:27:06;1.92;;;0.50;;
22737;SDS011;11536;50.860;4.286;2023-04-25T14:29:32;1.95;;;0.35;;
22737;SDS011;11536;50.860;4.286;2023-04-25T14:31:58;5.68;;;0.70;;
22737;SDS011;11536;50.860;4.286;2023-04-25T14:34:24;2.88;;;0.60;;
22737;SDS011;11536;50.860;4.286;2023-04-25T14:36:51;2.65;;;0.50;;
22737;SDS011;11536;50.860;4.286;2023-04-25T14:39:17;2.85;;;0.47;;
22737;SDS011;11536;50.860;4.286;2023-04-25T14:41:43;4.18;;;1.23;;
22737;SDS011;11536;50.860;4.286;2023-04-25T14:44:09;3.90;;;0.40;;
22737;SDS011;11536;50.860;4.286;2023-04-25T14:46:35;4.15;;;0.52;;
22737;SDS011;11536;50.860;4.286;2023-04-25T14:49:01;4.57;;;0.60;;
22737;SDS011;11536;50.860;4.286;2023-04-25T14:51:28;2.05;;;0.40;;
22737;SDS011;11536;50.860;4.286;2023-04-25T14:53:54;3.58;;;0.80;;